createdAt,value
2022-10-17T00:00:20.103Z,14.90
2022-10-17T00:01:20.116Z,15.40
2022-10-17T00:02:20.051Z,15.40
2022-10-17T00:03:20.029Z,15.50
2022-10-17T00:04:20.017Z,15.20
2022-10-17T00:05:20.162Z,16.60
2022-10-17T00:06:19.996Z,15.10
2022-10-17T00:07:19.993Z,14.60
2022-10-17T00:08:19.976Z,16.70
2022-10-17T00:09:19.951Z,16.00
2022-10-17T00:10:19.930Z,16.10
2022-10-17T00:11:19.964Z,18.00
2022-10-17T00:12:19.924Z,15.60
2022-10-17T00:13:19.912Z,18.50
2022-10-17T00:14:19.885Z,16.70
2022-10-17T00:15:19.872Z,15.00
2022-10-17T00:16:19.844Z,15.80
2022-10-17T00:17:19.966Z,15.60
2022-10-17T00:18:19.823Z,18.00
2022-10-17T00:19:19.827Z,16.30
2022-10-17T00:20:19.809Z,16.70
2022-10-17T00:21:19.784Z,17.10
2022-10-17T00:22:19.789Z,15.70
2022-10-17T00:23:19.873Z,16.00
2022-10-17T00:24:19.743Z,17.50
2022-10-17T00:25:19.749Z,16.10
2022-10-17T00:26:19.727Z,18.50
2022-10-17T00:27:19.708Z,17.90
2022-10-17T00:28:19.687Z,22.00
2022-10-17T00:29:19.812Z,18.70
2022-10-17T00:30:19.658Z,21.40
2022-10-17T00:31:19.663Z,19.60
2022-10-17T00:32:19.684Z,19.10
2022-10-17T00:33:19.619Z,18.60
2022-10-17T00:34:19.622Z,23.50
2022-10-17T00:35:19.629Z,31.10
2022-10-17T00:36:19.585Z,35.10
2022-10-17T00:37:19.583Z,23.30
2022-10-17T00:38:19.548Z,33.10
2022-10-17T00:39:19.552Z,24.40
2022-10-17T00:40:19.546Z,25.30
2022-10-17T00:41:19.644Z,27.20
2022-10-17T00:42:19.490Z,30.20
2022-10-17T00:43:19.502Z,23.80
2022-10-17T00:44:19.485Z,22.90
2022-10-17T00:45:19.459Z,27.00
2022-10-17T00:46:19.458Z,24.10
2022-10-17T00:47:19.453Z,26.30
2022-10-17T00:48:22.583Z,27.50
2022-10-17T00:49:19.416Z,23.10
2022-10-17T00:50:19.384Z,22.10
2022-10-17T00:51:19.397Z,24.60
2022-10-17T00:52:19.367Z,21.90
2022-10-17T00:53:19.473Z,23.70
2022-10-17T00:54:19.347Z,31.50
2022-10-17T00:55:19.323Z,32.10
2022-10-17T00:56:19.315Z,27.10
2022-10-17T00:57:19.310Z,22.80
2022-10-17T00:58:19.284Z,25.70
2022-10-17T00:59:19.398Z,22.50
2022-10-17T01:00:19.268Z,25.10
2022-10-17T01:01:19.286Z,24.70
2022-10-17T01:02:19.239Z,27.60
2022-10-17T01:03:19.215Z,27.50
2022-10-17T01:04:19.196Z,25.70
2022-10-17T01:05:19.331Z,26.00
2022-10-17T01:06:19.167Z,35.20
2022-10-17T01:07:19.172Z,31.60
2022-10-17T01:08:19.165Z,37.30
2022-10-17T01:09:19.128Z,29.00
2022-10-17T01:10:19.165Z,28.90
2022-10-17T01:11:19.138Z,31.60
2022-10-17T01:12:19.088Z,26.80
2022-10-17T01:13:19.093Z,27.70
2022-10-17T01:14:19.076Z,29.40
2022-10-17T01:15:19.051Z,29.00
2022-10-17T01:16:19.030Z,36.50
2022-10-17T01:17:19.064Z,29.00
2022-10-17T01:18:19.000Z,25.50
2022-10-17T01:19:19.081Z,24.30
2022-10-17T01:20:18.995Z,25.50
2022-10-17T01:21:18.973Z,24.50
2022-10-17T01:22:18.966Z,33.80
2022-10-17T01:23:19.052Z,30.30
2022-10-17T01:24:18.922Z,27.80
2022-10-17T01:25:18.928Z,39.70
2022-10-17T01:26:18.894Z,27.80
2022-10-17T01:27:18.908Z,41.70
2022-10-17T01:28:18.889Z,45.40
2022-10-17T01:29:18.969Z,45.80
2022-10-17T01:30:18.849Z,55.50
2022-10-17T01:31:18.849Z,65.10
2022-10-17T01:32:18.836Z,80.00
2022-10-17T01:33:18.805Z,81.70
2022-10-17T01:34:18.799Z,62.30
2022-10-17T01:35:18.895Z,45.10
2022-10-17T01:36:18.757Z,27.70
2022-10-17T01:37:18.770Z,24.70
2022-10-17T01:38:18.746Z,30.00
2022-10-17T01:39:18.741Z,30.50
2022-10-17T01:40:18.720Z,37.80
2022-10-17T01:41:18.808Z,41.80
2022-10-17T01:42:18.711Z,35.70
2022-10-17T01:43:18.688Z,55.50
2022-10-17T01:44:18.651Z,48.60
2022-10-17T01:45:18.661Z,42.50
2022-10-17T01:46:18.668Z,59.30
2022-10-17T01:47:18.911Z,53.60
2022-10-17T01:48:18.597Z,44.90
2022-10-17T01:49:18.605Z,46.70
2022-10-17T01:50:18.573Z,42.40
2022-10-17T01:51:18.577Z,57.30
2022-10-17T01:52:18.556Z,44.30
2022-10-17T01:53:18.562Z,70.50
2022-10-17T01:54:18.533Z,45.10
2022-10-17T01:55:18.511Z,45.00
2022-10-17T01:56:18.485Z,57.90
2022-10-17T01:57:18.496Z,59.60
2022-10-17T01:58:18.465Z,122.20
2022-10-17T02:00:51.264Z,132.10
2022-10-17T02:01:30.293Z,116.90
2022-10-17T02:02:30.221Z,105.50
2022-10-17T02:03:30.216Z,74.40
2022-10-17T02:04:30.311Z,54.70
2022-10-17T02:05:30.188Z,49.20
2022-10-17T02:06:30.185Z,47.30
2022-10-17T02:07:30.438Z,38.80
2022-10-17T02:08:30.146Z,37.30
2022-10-17T02:09:30.113Z,40.70
2022-10-17T02:10:30.132Z,42.70
2022-10-17T02:11:30.099Z,42.70
2022-10-17T02:12:30.083Z,45.20
2022-10-17T02:13:30.077Z,48.90
2022-10-17T02:14:30.071Z,42.40
2022-10-17T02:15:30.034Z,50.00
2022-10-17T02:16:30.178Z,43.00
2022-10-17T02:17:30.284Z,42.30
2022-10-17T02:18:30.003Z,41.60
2022-10-17T02:19:29.997Z,63.60
2022-10-17T02:20:29.966Z,51.00
2022-10-17T02:21:29.969Z,48.10
2022-10-17T02:22:30.069Z,54.40
2022-10-17T02:23:29.931Z,48.90
2022-10-17T02:24:29.939Z,49.50
2022-10-17T02:25:29.897Z,55.90
2022-10-17T02:26:29.897Z,66.00
2022-10-17T02:27:30.497Z,59.80
2022-10-17T02:28:30.013Z,70.80
2022-10-17T02:29:29.860Z,59.70
2022-10-17T02:30:29.851Z,55.60
2022-10-17T02:31:29.819Z,59.40
2022-10-17T02:32:29.811Z,55.70
2022-10-17T02:33:29.804Z,55.20
2022-10-17T02:34:29.912Z,54.90
2022-10-17T02:35:29.770Z,53.00
2022-10-17T02:36:29.770Z,55.40
2022-10-17T02:37:30.128Z,57.10
2022-10-17T02:38:29.731Z,59.20
2022-10-17T02:39:29.724Z,58.20
2022-10-17T02:40:29.815Z,55.60
2022-10-17T02:42:29.889Z,62.40
2022-10-17T02:43:29.665Z,63.60
2022-10-17T02:44:29.667Z,57.00
2022-10-17T02:45:29.633Z,53.30
2022-10-17T02:46:29.646Z,52.50
2022-10-17T02:47:29.618Z,55.70
2022-10-17T02:48:29.607Z,63.20
2022-10-17T02:49:29.574Z,51.70
2022-10-17T02:51:29.560Z,54.70
2022-10-17T02:52:29.801Z,55.00
2022-10-17T02:53:29.539Z,64.30
2022-10-17T02:54:29.570Z,67.40
2022-10-17T02:55:29.496Z,52.50
2022-10-17T02:56:29.500Z,50.80
2022-10-17T02:57:29.468Z,47.80
2022-10-17T02:58:29.566Z,58.40
2022-10-17T02:59:29.502Z,50.00
2022-10-17T03:00:29.427Z,51.90
2022-10-17T03:01:29.516Z,52.00
2022-10-17T03:02:29.620Z,79.80
2022-10-17T03:03:29.386Z,49.20
2022-10-17T03:04:29.420Z,62.90
2022-10-17T03:05:29.370Z,66.00
2022-10-17T03:06:29.364Z,56.10
2022-10-17T03:07:29.329Z,53.50
2022-10-17T03:08:29.391Z,62.10
2022-10-17T03:09:29.303Z,58.40
2022-10-17T03:10:29.404Z,120.90
2022-10-17T03:11:29.295Z,54.20
2022-10-17T03:12:29.550Z,58.00
2022-10-17T03:13:29.263Z,56.30
2022-10-17T03:14:29.264Z,48.10
2022-10-17T03:15:29.212Z,64.70
2022-10-17T03:16:29.336Z,49.50
2022-10-17T03:17:29.193Z,50.00
2022-10-17T03:18:29.184Z,46.30
2022-10-17T03:19:29.177Z,46.80
2022-10-17T03:20:29.153Z,50.30
2022-10-17T03:21:29.148Z,48.80
2022-10-17T03:22:29.548Z,56.00
2022-10-17T03:23:29.105Z,79.20
2022-10-17T03:24:29.119Z,56.10
2022-10-17T03:25:29.084Z,58.00
2022-10-17T03:26:29.075Z,73.20
2022-10-17T03:27:29.316Z,118.00
2022-10-17T03:28:29.208Z,87.10
2022-10-17T03:29:29.042Z,119.00
2022-10-17T03:30:29.031Z,145.40
2022-10-17T03:31:29.007Z,133.50
2022-10-17T03:32:29.008Z,67.00
2022-10-17T03:33:28.975Z,68.80
2022-10-17T03:34:29.077Z,79.10
2022-10-17T03:35:28.971Z,69.90
2022-10-17T03:36:28.952Z,144.10
2022-10-17T03:37:29.144Z,109.40
2022-10-17T03:38:28.909Z,88.20
2022-10-17T03:39:28.902Z,64.80
2022-10-17T03:40:28.991Z,65.80
2022-10-17T03:41:28.891Z,79.60
2022-10-17T03:42:28.875Z,276.80
2022-10-17T03:43:28.841Z,113.70
2022-10-17T03:44:28.844Z,86.50
2022-10-17T03:45:28.811Z,119.60
2022-10-17T03:46:28.919Z,61.20
2022-10-17T03:47:29.152Z,57.10
2022-10-17T03:48:28.772Z,215.90
2022-10-17T03:49:28.776Z,338.90
2022-10-17T03:50:28.775Z,135.70
2022-10-17T03:51:28.724Z,117.50
2022-10-17T03:52:28.835Z,118.10
2022-10-17T03:53:28.718Z,173.40
2022-10-17T03:54:28.720Z,141.70
2022-10-17T03:55:28.683Z,175.50
2022-10-17T03:56:28.686Z,204.60
2022-10-17T03:57:28.906Z,71.20
2022-10-17T03:58:28.789Z,152.70
2022-10-17T03:59:28.639Z,137.00
2022-10-17T04:00:28.622Z,272.40
2022-10-17T04:01:28.663Z,428.20
2022-10-17T04:02:28.610Z,405.70
2022-10-17T04:03:28.574Z,646.20
2022-10-17T04:04:28.600Z,565.80
2022-10-17T04:05:28.539Z,662.70
2022-10-17T04:06:28.529Z,339.90
2022-10-17T04:07:28.535Z,207.50
2022-10-17T04:08:28.522Z,236.90
2022-10-17T04:09:28.487Z,242.20
2022-10-17T04:10:28.600Z,164.10
2022-10-17T04:11:28.472Z,52.90
2022-10-17T04:12:28.688Z,62.90
2022-10-17T04:13:28.444Z,54.70
2022-10-17T04:14:28.441Z,186.50
2022-10-17T04:15:28.401Z,104.50
2022-10-17T04:16:28.443Z,56.70
2022-10-17T04:17:28.381Z,50.00
2022-10-17T04:18:28.369Z,142.50
2022-10-17T04:19:28.365Z,85.20
2022-10-17T04:20:28.342Z,168.00
2022-10-17T04:21:28.337Z,199.20
2022-10-17T04:22:28.657Z,111.90
2022-10-17T04:23:28.301Z,203.30
2022-10-17T04:24:28.336Z,527.50
2022-10-17T04:25:29.651Z,82.70
2022-10-17T04:26:28.273Z,173.30
2022-10-17T04:27:28.255Z,116.60
2022-10-17T04:28:28.511Z,902.80
2022-10-17T04:29:28.227Z,669.30
2022-10-17T04:30:28.218Z,226.70
2022-10-17T04:31:28.212Z,118.30
2022-10-17T04:32:28.531Z,356.00
2022-10-17T04:33:28.156Z,376.50
2022-10-17T04:34:28.187Z,476.00
2022-10-17T04:35:28.150Z,270.90
2022-10-17T04:36:28.126Z,328.30
2022-10-17T04:37:28.119Z,795.30
2022-10-17T04:38:28.718Z,373.20
2022-10-17T04:39:28.075Z,187.80
2022-10-17T04:40:28.098Z,145.70
2022-10-17T04:41:28.062Z,336.90
2022-10-17T04:42:28.536Z,184.10
2022-10-17T04:43:28.028Z,573.70
2022-10-17T04:44:28.033Z,410.00
2022-10-17T04:45:28.000Z,496.80
2022-10-17T04:46:28.097Z,428.40
2022-10-17T04:47:27.984Z,414.60
2022-10-17T04:48:27.959Z,90.30
2022-10-17T04:49:27.992Z,248.00
2022-10-17T04:50:27.953Z,237.50
2022-10-17T04:51:27.912Z,503.10
2022-10-17T04:52:28.331Z,559.80
2022-10-17T04:53:27.891Z,252.50
2022-10-17T04:54:27.882Z,611.40
2022-10-17T04:55:27.885Z,767.40
2022-10-17T04:56:27.869Z,502.30
2022-10-17T04:57:27.832Z,362.60
2022-10-17T04:58:27.852Z,484.60
2022-10-17T04:59:27.817Z,386.10
2022-10-17T05:00:27.801Z,920.40
2022-10-17T05:01:27.826Z,754.80
2022-10-17T05:02:28.243Z,674.70
2022-10-17T05:03:27.768Z,382.00
2022-10-17T05:04:27.889Z,472.70
2022-10-17T05:05:27.725Z,340.10
2022-10-17T05:06:27.724Z,904.70
2022-10-17T05:07:27.709Z,381.70
2022-10-17T05:08:27.695Z,722.60
2022-10-17T05:09:27.691Z,663.70
2022-10-17T05:10:27.811Z,433.90
2022-10-17T05:11:27.670Z,409.60
2022-10-17T05:12:27.957Z,529.40
2022-10-17T05:13:27.634Z,637.90
2022-10-17T05:14:27.650Z,748.40
2022-10-17T05:15:27.599Z,709.20
2022-10-17T05:16:27.711Z,832.70
2022-10-17T05:17:27.560Z,861.60
2022-10-17T05:18:27.559Z,771.80
2022-10-17T05:19:27.554Z,742.30
2022-10-17T05:20:27.532Z,853.10
2022-10-17T05:21:27.578Z,665.10
2022-10-17T05:22:27.880Z,703.20
2022-10-17T05:23:27.480Z,252.90
2022-10-17T05:24:27.494Z,503.50
2022-10-17T05:25:27.460Z,175.90
2022-10-17T05:26:27.451Z,46.10
2022-10-17T05:27:27.445Z,43.20
2022-10-17T05:28:27.516Z,331.70
2022-10-17T05:29:27.414Z,668.90
2022-10-17T05:30:27.392Z,677.40
2022-10-17T05:31:27.396Z,499.60
2022-10-17T05:32:27.577Z,170.00
2022-10-17T05:33:27.366Z,416.20
2022-10-17T05:34:27.477Z,248.00
2022-10-17T05:35:27.342Z,469.70
2022-10-17T05:36:27.328Z,300.80
2022-10-17T05:37:27.312Z,108.60
2022-10-17T05:38:27.275Z,111.60
2022-10-17T05:39:27.294Z,94.80
2022-10-17T05:40:27.395Z,107.20
2022-10-17T05:41:27.260Z,78.50
2022-10-17T05:42:27.555Z,54.60
2022-10-17T05:43:27.215Z,49.70
2022-10-17T05:44:27.214Z,52.90
2022-10-17T05:45:27.210Z,59.70
2022-10-17T05:46:27.225Z,52.10
2022-10-17T05:47:27.514Z,53.50
2022-10-17T05:48:27.161Z,50.70
2022-10-17T05:49:33.259Z,55.20
2022-10-17T05:50:28.145Z,55.40
2022-10-17T05:51:27.142Z,53.30
2022-10-17T05:52:27.324Z,61.80
2022-10-17T05:53:27.127Z,52.90
2022-10-17T05:54:27.085Z,56.60
2022-10-17T05:55:27.050Z,54.90
2022-10-17T05:56:27.055Z,50.20
2022-10-17T05:57:27.020Z,51.70
2022-10-17T05:59:28.012Z,68.40
2022-10-17T06:00:26.993Z,59.10
2022-10-17T06:01:26.970Z,54.80
2022-10-17T06:02:27.358Z,60.40
2022-10-17T06:03:26.965Z,61.00
2022-10-17T06:04:26.972Z,80.30
2022-10-17T06:05:26.934Z,56.60
2022-10-17T06:06:26.908Z,55.50
2022-10-17T06:07:26.891Z,56.20
2022-10-17T06:08:26.886Z,53.80
2022-10-17T06:09:26.870Z,51.90
2022-10-17T06:10:26.883Z,64.10
2022-10-17T06:11:26.849Z,62.10
2022-10-17T06:12:27.194Z,55.90
2022-10-17T06:13:26.829Z,52.00
2022-10-17T06:14:26.826Z,50.30
2022-10-17T06:15:26.776Z,49.30
2022-10-17T06:16:26.886Z,50.10
2022-10-17T06:17:26.769Z,54.10
2022-10-17T06:18:26.748Z,49.80
2022-10-17T06:19:26.725Z,50.90
2022-10-17T06:20:26.722Z,51.30
2022-10-17T06:21:26.697Z,50.70
2022-10-17T06:22:27.130Z,50.00
2022-10-17T06:23:26.691Z,53.90
2022-10-17T06:24:26.649Z,49.40
2022-10-17T06:25:26.662Z,47.30
2022-10-17T06:26:26.641Z,44.90
2022-10-17T06:27:26.616Z,41.50
2022-10-17T06:28:26.835Z,39.60
2022-10-17T06:29:26.589Z,41.10
2022-10-17T06:30:26.570Z,38.90
2022-10-17T06:31:26.573Z,39.90
2022-10-17T06:32:26.697Z,39.10
2022-10-17T06:33:26.581Z,37.20
2022-10-17T06:34:26.643Z,40.20
2022-10-17T06:35:26.512Z,39.20
2022-10-17T06:36:26.506Z,37.90
2022-10-17T06:37:27.217Z,39.40
2022-10-17T06:38:26.464Z,38.10
2022-10-17T06:39:26.467Z,37.90
2022-10-17T06:40:26.582Z,37.40
2022-10-17T06:41:26.447Z,38.20
2022-10-17T06:42:26.435Z,38.00
2022-10-17T06:43:27.951Z,38.50
2022-10-17T06:44:26.399Z,37.30
2022-10-17T06:45:26.374Z,33.50
2022-10-17T06:46:26.384Z,34.10
2022-10-17T06:47:26.369Z,34.40
2022-10-17T06:48:26.350Z,34.40
2022-10-17T06:49:26.317Z,33.90
2022-10-17T06:50:26.326Z,33.90
2022-10-17T06:51:26.311Z,33.70
2022-10-17T06:52:26.397Z,31.70
2022-10-17T06:53:26.283Z,31.00
2022-10-17T06:54:26.288Z,31.10
2022-10-17T06:55:26.244Z,31.00
2022-10-17T06:56:26.254Z,31.30
2022-10-17T06:57:26.500Z,30.60
2022-10-17T06:58:26.219Z,30.70
2022-10-17T06:59:26.204Z,30.40
2022-10-17T07:00:26.169Z,30.50
2022-10-17T07:01:26.173Z,30.80
2022-10-17T07:02:26.273Z,30.60
2022-10-17T07:03:26.131Z,30.60
2022-10-17T07:04:26.232Z,29.90
2022-10-17T07:05:26.124Z,30.70
2022-10-17T07:06:26.108Z,29.00
2022-10-17T07:07:26.175Z,30.40
2022-10-17T07:08:26.098Z,31.50
2022-10-17T07:09:26.052Z,29.20
2022-10-17T07:10:26.174Z,28.10
2022-10-17T07:11:26.045Z,28.10
2022-10-17T07:12:26.023Z,28.00
2022-10-17T07:13:26.024Z,26.40
2022-10-17T07:14:25.998Z,25.80
2022-10-17T07:15:25.974Z,27.10
2022-10-17T07:16:26.087Z,26.20
2022-10-17T07:17:26.055Z,28.20
2022-10-17T07:18:25.930Z,28.00
2022-10-17T07:19:25.943Z,27.20
2022-10-17T07:20:25.921Z,29.50
2022-10-17T07:21:25.904Z,28.20
2022-10-17T07:22:25.916Z,31.60
2022-10-17T07:23:25.891Z,32.30
2022-10-17T07:24:25.858Z,34.90
2022-10-17T07:25:25.861Z,37.20
2022-10-17T07:26:25.841Z,35.70
2022-10-17T07:27:25.836Z,35.50
2022-10-17T07:28:25.853Z,38.60
2022-10-17T07:29:25.788Z,36.30
2022-10-17T07:30:25.769Z,39.70
2022-10-17T07:31:25.781Z,40.40
2022-10-17T07:32:25.767Z,41.30
2022-10-17T07:33:25.754Z,42.80
2022-10-17T07:34:25.862Z,43.90
2022-10-17T07:35:25.712Z,46.70
2022-10-17T07:36:25.713Z,43.30
2022-10-17T07:37:25.690Z,44.30
2022-10-17T07:38:25.672Z,43.00
2022-10-17T07:39:25.666Z,41.00
2022-10-17T07:40:25.754Z,41.60
2022-10-17T07:41:25.645Z,38.50
2022-10-17T07:42:25.687Z,38.50
2022-10-17T07:43:25.603Z,39.60
2022-10-17T07:44:25.606Z,39.70
2022-10-17T07:45:25.582Z,40.80
2022-10-17T07:46:25.674Z,47.60
2022-10-17T07:47:25.569Z,46.20
2022-10-17T07:48:25.538Z,59.70
2022-10-17T07:49:25.540Z,62.20
2022-10-17T07:50:25.553Z,62.20
2022-10-17T07:51:25.535Z,77.70
2022-10-17T07:52:25.606Z,82.80
2022-10-17T07:53:25.487Z,75.80
2022-10-17T07:54:25.471Z,82.70
2022-10-17T07:55:25.466Z,72.80
2022-10-17T07:56:25.448Z,76.20
2022-10-17T07:57:25.426Z,75.80
2022-10-17T07:58:25.528Z,79.00
2022-10-17T07:59:25.402Z,54.60
2022-10-17T08:00:25.378Z,51.50
2022-10-17T08:01:25.549Z,54.70
2022-10-17T08:02:25.366Z,41.30
2022-10-17T08:03:25.361Z,49.30
2022-10-17T08:04:25.441Z,55.50
2022-10-17T08:05:25.311Z,32.40
2022-10-17T08:06:25.437Z,32.80
2022-10-17T08:07:29.158Z,37.80
2022-10-17T08:08:25.274Z,39.80
2022-10-17T08:09:25.268Z,31.10
2022-10-17T08:10:25.354Z,33.10
2022-10-17T08:11:25.246Z,33.20
2022-10-17T08:12:25.218Z,33.40
2022-10-17T08:13:25.221Z,36.30
2022-10-17T08:14:25.216Z,37.80
2022-10-17T08:15:28.015Z,29.90
2022-10-17T08:16:26.198Z,28.90
2022-10-17T08:17:25.144Z,24.70
2022-10-17T08:18:25.125Z,23.70
2022-10-17T08:19:25.139Z,23.40
2022-10-17T08:20:25.097Z,21.70
2022-10-17T08:21:25.109Z,18.60
2022-10-17T08:22:25.109Z,19.70
2022-10-17T08:23:25.067Z,19.10
2022-10-17T08:24:25.067Z,16.90
2022-10-17T08:25:25.091Z,15.70
2022-10-17T08:26:25.051Z,19.10
2022-10-17T08:27:25.009Z,14.90
2022-10-17T08:28:25.065Z,15.00
2022-10-17T08:29:25.013Z,15.70
2022-10-17T08:30:24.969Z,15.90
2022-10-17T08:31:24.981Z,16.70
2022-10-17T08:32:24.983Z,14.60
2022-10-17T08:33:24.962Z,15.20
2022-10-17T08:34:25.044Z,14.90
2022-10-17T08:35:24.913Z,16.10
2022-10-17T08:36:24.909Z,15.10
2022-10-17T08:37:24.881Z,14.50
2022-10-17T08:38:27.551Z,17.90
2022-10-17T08:39:24.874Z,14.60
2022-10-17T08:40:24.953Z,17.40
2022-10-17T08:41:24.845Z,14.90
2022-10-17T08:42:24.828Z,13.70
2022-10-17T08:43:24.803Z,17.10
2022-10-17T08:44:24.798Z,15.20
2022-10-17T08:45:24.773Z,13.90
2022-10-17T08:46:24.876Z,12.30
2022-10-17T08:47:24.769Z,12.10
2022-10-17T08:48:24.739Z,14.50
2022-10-17T08:49:24.739Z,13.10
2022-10-17T08:50:24.742Z,13.90
2022-10-17T08:51:24.697Z,14.50
2022-10-17T08:52:24.818Z,14.70
2022-10-17T08:53:24.668Z,11.60
2022-10-17T08:54:24.652Z,11.40
2022-10-17T08:55:24.680Z,12.90
2022-10-17T08:56:36.526Z,9.20
2022-10-17T08:57:25.791Z,12.20
2022-10-17T08:58:24.596Z,13.40
2022-10-17T08:59:24.602Z,15.50
2022-10-17T09:00:24.570Z,11.30
2022-10-17T09:01:24.573Z,8.00
2022-10-17T09:02:24.561Z,14.40
2022-10-17T09:03:24.702Z,11.60
2022-10-17T09:04:24.531Z,10.80
2022-10-17T09:05:26.539Z,8.70
2022-10-17T09:06:24.492Z,9.90
2022-10-17T09:07:24.556Z,10.30
2022-10-17T09:08:24.452Z,8.90
2022-10-17T09:09:24.576Z,11.30
2022-10-17T09:10:24.446Z,7.50
2022-10-17T09:11:24.425Z,8.80
2022-10-17T09:12:24.404Z,9.10
2022-10-17T09:13:24.499Z,11.60
2022-10-17T09:14:24.395Z,11.30
2022-10-17T09:15:24.485Z,9.90
2022-10-17T09:16:24.368Z,8.10
2022-10-17T09:17:24.373Z,9.90
2022-10-17T09:18:24.326Z,13.30
2022-10-17T09:19:24.331Z,9.90
2022-10-17T09:20:24.297Z,8.70
2022-10-17T09:21:24.419Z,10.00
2022-10-17T09:22:24.282Z,11.10
2022-10-17T09:23:24.265Z,10.60
2022-10-17T09:24:24.261Z,6.80
2022-10-17T09:25:24.238Z,9.30
2022-10-17T09:26:24.219Z,9.50
2022-10-17T09:27:24.406Z,9.00
2022-10-17T09:28:24.298Z,9.00
2022-10-17T09:29:24.192Z,10.90
2022-10-17T09:30:43.681Z,10.20
2022-10-17T09:31:25.175Z,9.50
2022-10-17T09:32:24.143Z,7.20
2022-10-17T09:33:34.801Z,10.00
2022-10-17T09:34:26.671Z,11.00
2022-10-17T09:35:24.104Z,11.40
2022-10-17T09:36:24.118Z,9.00
2022-10-17T09:37:24.193Z,10.30
2022-10-17T09:38:24.064Z,10.00
2022-10-17T09:39:24.178Z,8.40
2022-10-17T09:40:24.036Z,11.60
2022-10-17T09:42:25.021Z,10.30
2022-10-17T09:43:23.996Z,10.00
2022-10-17T09:44:23.988Z,12.20
2022-10-17T09:45:24.019Z,10.70
2022-10-17T09:46:23.970Z,10.10
2022-10-17T09:47:24.076Z,9.90
2022-10-17T09:48:23.949Z,10.00
2022-10-17T09:49:23.908Z,8.30
2022-10-17T09:50:24.045Z,9.90
2022-10-17T09:51:26.192Z,10.80
2022-10-17T09:52:23.885Z,8.00
2022-10-17T09:53:23.876Z,9.30
2022-10-17T09:54:23.873Z,10.00
2022-10-17T09:55:23.840Z,10.50
2022-10-17T09:56:23.847Z,9.10
2022-10-17T09:57:23.889Z,10.80
2022-10-17T09:58:23.796Z,10.70
2022-10-17T09:59:23.796Z,9.50
2022-10-17T10:00:23.844Z,9.30
2022-10-17T10:01:24.440Z,10.80
2022-10-17T10:02:23.746Z,11.00
2022-10-17T10:03:23.887Z,8.40
2022-10-17T10:04:23.725Z,7.40
2022-10-17T10:05:23.718Z,10.70
2022-10-17T10:06:23.699Z,11.40
2022-10-17T10:07:29.022Z,10.80
2022-10-17T10:08:24.800Z,7.00
2022-10-17T10:09:23.649Z,10.30
2022-10-17T10:10:23.638Z,7.30
2022-10-17T10:11:23.638Z,7.70
2022-10-17T10:12:23.617Z,10.80
2022-10-17T10:13:23.611Z,11.80
2022-10-17T10:14:23.712Z,7.00
2022-10-17T10:15:23.591Z,10.30
2022-10-17T10:16:23.564Z,10.90
2022-10-17T10:17:23.567Z,9.70
2022-10-17T10:18:23.594Z,8.20
2022-10-17T10:19:23.526Z,9.40
2022-10-17T10:20:23.544Z,7.10
2022-10-17T10:21:23.483Z,8.30
2022-10-17T10:22:23.498Z,11.30
2022-10-17T10:23:23.486Z,9.60
2022-10-17T10:24:28.146Z,8.50
2022-10-17T10:25:24.478Z,9.80
2022-10-17T10:26:23.440Z,11.10
2022-10-17T10:27:23.433Z,8.40
2022-10-17T10:28:23.450Z,5.90
2022-10-17T10:29:23.386Z,6.00
2022-10-17T10:30:23.374Z,9.90
2022-10-17T10:31:38.081Z,8.50
2022-10-17T10:32:23.340Z,7.30
2022-10-17T10:33:23.340Z,11.80
2022-10-17T10:34:23.317Z,7.20
2022-10-17T10:35:23.298Z,10.90
2022-10-17T10:36:23.376Z,10.20
2022-10-17T10:37:23.298Z,9.70
2022-10-17T10:38:23.277Z,7.10
2022-10-17T10:39:23.256Z,13.10
2022-10-17T10:40:23.238Z,11.30
2022-10-17T10:41:23.219Z,8.80
2022-10-17T10:42:23.214Z,9.50
2022-10-17T10:43:23.219Z,8.60
2022-10-17T10:44:23.190Z,7.30
2022-10-17T10:45:43.194Z,10.00
2022-10-17T10:46:24.162Z,9.60
2022-10-17T10:47:23.150Z,7.50
2022-10-17T10:48:23.133Z,10.70
2022-10-17T10:49:23.142Z,9.00
2022-10-17T10:50:23.113Z,11.10
2022-10-17T10:51:23.094Z,9.50
2022-10-17T10:52:23.084Z,9.80
2022-10-17T10:53:23.064Z,7.70
2022-10-17T10:54:23.063Z,8.80
2022-10-17T10:55:23.154Z,10.40
2022-10-17T10:56:23.025Z,8.90
2022-10-17T10:57:23.015Z,8.90
2022-10-17T10:58:23.008Z,7.10
2022-10-17T10:59:22.987Z,9.70
2022-10-17T11:00:23.059Z,9.60
2022-10-17T11:01:22.988Z,9.70
2022-10-17T11:02:22.955Z,9.80
2022-10-17T11:03:22.938Z,9.40
2022-10-17T11:04:22.929Z,9.70
2022-10-17T11:05:22.908Z,11.50
2022-10-17T11:06:22.899Z,11.90
2022-10-17T11:07:22.931Z,7.60
2022-10-17T11:08:22.881Z,12.80
2022-10-17T11:09:22.867Z,9.30
2022-10-17T11:10:22.851Z,10.90
2022-10-17T11:11:22.831Z,11.30
2022-10-17T11:12:22.823Z,11.80
2022-10-17T11:13:22.823Z,9.90
2022-10-17T11:14:22.793Z,9.50
2022-10-17T11:15:22.782Z,9.40
2022-10-17T11:16:22.775Z,10.90
2022-10-17T11:17:22.754Z,9.00
2022-10-17T11:18:22.744Z,10.90
2022-10-17T11:19:22.847Z,12.00
2022-10-17T11:20:22.715Z,9.70
2022-10-17T11:21:22.706Z,13.80
2022-10-17T11:22:25.256Z,12.60
2022-10-17T11:23:23.676Z,10.60
2022-10-17T11:24:22.667Z,10.70
2022-10-17T11:25:22.777Z,11.90
2022-10-17T11:26:22.638Z,9.30
2022-10-17T11:27:22.619Z,14.90
2022-10-17T11:28:22.676Z,11.40
2022-10-17T11:29:22.600Z,11.60
2022-10-17T11:30:22.590Z,9.90
2022-10-17T11:31:22.695Z,13.60
2022-10-17T11:32:22.562Z,12.20
2022-10-17T11:33:22.549Z,11.30
2022-10-17T11:34:22.531Z,11.60
2022-10-17T11:35:22.519Z,9.90
2022-10-17T11:36:22.502Z,11.50
2022-10-17T11:37:22.603Z,11.10
2022-10-17T11:38:22.486Z,11.50
2022-10-17T11:39:22.463Z,16.10
2022-10-17T11:40:24.423Z,10.20
2022-10-17T11:41:22.436Z,10.70
2022-10-17T11:42:22.424Z,9.00
2022-10-17T11:43:22.614Z,9.40
2022-10-17T11:44:22.395Z,12.50
2022-10-17T11:45:22.386Z,11.60
2022-10-17T11:46:22.377Z,13.60
2022-10-17T11:47:22.357Z,11.70
2022-10-17T11:48:22.349Z,10.70
2022-10-17T11:49:22.487Z,10.60
2022-10-17T11:52:37.826Z,11.00
2022-10-17T11:53:23.288Z,8.90
2022-10-17T11:54:22.271Z,13.20
2022-10-17T11:55:22.360Z,10.30
2022-10-17T11:56:22.902Z,14.80
2022-10-17T11:57:22.222Z,11.30
2022-10-17T11:58:22.261Z,11.90
2022-10-17T11:59:22.200Z,11.10
2022-10-17T12:00:22.182Z,15.10
2022-10-17T12:01:22.192Z,11.40
2022-10-17T12:02:22.164Z,12.60
2022-10-17T12:03:22.144Z,13.70
2022-10-17T12:04:22.227Z,9.90
2022-10-17T12:05:22.113Z,13.60
2022-10-17T12:06:25.854Z,9.70
2022-10-17T12:07:23.279Z,15.00
2022-10-17T12:08:22.082Z,12.00
2022-10-17T12:09:22.095Z,11.70
2022-10-17T12:10:22.054Z,9.80
2022-10-17T12:11:22.035Z,11.50
2022-10-17T12:12:22.026Z,12.50
2022-10-17T12:13:22.127Z,10.30
2022-10-17T12:14:21.998Z,16.20
2022-10-17T12:15:21.978Z,10.90
2022-10-17T12:16:21.971Z,13.70
2022-10-17T12:17:21.959Z,14.90
2022-10-17T12:18:21.950Z,12.00
2022-10-17T12:19:22.039Z,10.80
2022-10-17T12:20:21.923Z,11.30
2022-10-17T12:21:22.487Z,11.30
2022-10-17T12:22:21.891Z,11.90
2022-10-17T12:23:21.871Z,12.90
2022-10-17T12:24:21.870Z,19.20
2022-10-17T12:25:22.051Z,14.60
2022-10-17T12:26:21.839Z,14.40
2022-10-17T12:27:21.822Z,12.00
2022-10-17T12:28:21.839Z,13.60
2022-10-17T12:29:21.803Z,13.80
2022-10-17T12:30:21.783Z,14.00
2022-10-17T12:31:21.794Z,11.70
2022-10-17T12:32:21.754Z,11.20
2022-10-17T12:33:21.737Z,12.20
2022-10-17T12:34:21.735Z,12.50
2022-10-17T12:35:21.725Z,12.80
2022-10-17T12:36:21.708Z,11.50
2022-10-17T12:37:21.796Z,16.40
2022-10-17T12:38:21.684Z,15.20
2022-10-17T12:39:21.671Z,16.90
2022-10-17T12:40:21.648Z,18.30
2022-10-17T12:41:21.629Z,11.50
2022-10-17T12:42:21.627Z,12.10
2022-10-17T12:43:21.720Z,13.00
2022-10-17T12:44:21.606Z,14.00
2022-10-17T12:45:21.580Z,13.10
2022-10-17T12:46:21.570Z,10.90
2022-10-17T12:47:21.551Z,13.60
2022-10-17T12:48:22.122Z,18.10
2022-10-17T12:49:21.632Z,14.00
2022-10-17T12:50:21.523Z,15.90
2022-10-17T12:51:35.326Z,15.60
2022-10-17T12:52:22.492Z,11.10
2022-10-17T12:53:21.473Z,12.10
2022-10-17T12:54:21.464Z,12.30
2022-10-17T12:55:21.563Z,12.60
2022-10-17T12:56:21.434Z,12.40
2022-10-17T12:57:21.417Z,15.00
2022-10-17T12:58:21.413Z,13.30